sensor_id;sensor_type;location;lat;lon;timestamp;P1;durP1;ratioP1;P2;durP2;ratioP2
6864;SDS011;3471;49.678;8.388;2022-11-12T00:00:20;16.60;;;11.07;;
6864;SDS011;3471;49.678;8.388;2022-11-12T00:02:46;15.63;;;9.30;;
6864;SDS011;3471;49.678;8.388;2022-11-12T00:05:12;14.15;;;9.68;;
6864;SDS011;3471;49.678;8.388;2022-11-12T00:07:37;14.98;;;9.40;;
6864;SDS011;3471;49.678;8.388;2022-11-12T00:10:03;18.27;;;11.13;;
6864;SDS011;3471;49.678;8.388;2022-11-12T00:12:29;16.50;;;9.13;;
6864;SDS011;3471;49.678;8.388;2022-11-12T00:14:55;17.65;;;10.30;;
6864;SDS011;3471;49.678;8.388;2022-11-12T00:17:20;13.83;;;9.07;;
6864;SDS011;3471;49.678;8.388;2022-11-12T00:19:46;16.50;;;11.40;;
6864;SDS011;3471;49.678;8.388;2022-11-12T00:22:12;11.93;;;8.40;;
6864;SDS011;3471;49.678;8.388;2022-11-12T00:24:38;11.00;;;8.60;;
6864;SDS011;3471;49.678;8.388;2022-11-12T00:27:03;16.15;;;9.23;;
6864;SDS011;3471;49.678;8.388;2022-11-12T00:29:29;11.60;;;8.73;;
6864;SDS011;3471;49.678;8.388;2022-11-12T00:31:54;17.43;;;11.33;;
6864;SDS011;3471;49.678;8.388;2022-11-12T00:34:20;13.45;;;8.55;;
6864;SDS011;3471;49.678;8.388;2022-11-12T00:36:45;18.90;;;12.88;;
6864;SDS011;3471;49.678;8.388;2022-11-12T00:39:11;14.40;;;10.50;;
6864;SDS011;3471;49.678;8.388;2022-11-12T00:41:36;16.15;;;13.50;;
6864;SDS011;3471;49.678;8.388;2022-11-12T00:44:02;12.00;;;9.38;;
6864;SDS011;3471;49.678;8.388;2022-11-12T00:46:28;18.40;;;9.80;;
6864;SDS011;3471;49.678;8.388;2022-11-12T00:48:53;13.60;;;8.60;;
6864;SDS011;3471;49.678;8.388;2022-11-12T00:51:19;14.10;;;9.83;;
6864;SDS011;3471;49.678;8.388;2022-11-12T00:53:48;15.03;;;10.10;;
6864;SDS011;3471;49.678;8.388;2022-11-12T00:56:14;22.40;;;11.00;;
6864;SDS011;3471;49.678;8.388;2022-11-12T00:58:40;12.77;;;10.50;;
6864;SDS011;3471;49.678;8.388;2022-11-12T01:01:10;10.60;;;7.95;;
6864;SDS011;3471;49.678;8.388;2022-11-12T01:03:37;11.82;;;9.15;;
6864;SDS011;3471;49.678;8.388;2022-11-12T01:06:04;17.00;;;10.77;;
6864;SDS011;3471;49.678;8.388;2022-11-12T01:08:31;13.10;;;10.70;;
6864;SDS011;3471;49.678;8.388;2022-11-12T01:11:03;10.82;;;8.43;;
6864;SDS011;3471;49.678;8.388;2022-11-12T01:13:30;17.02;;;7.63;;
6864;SDS011;3471;49.678;8.388;2022-11-12T01:15:56;9.57;;;7.47;;
6864;SDS011;3471;49.678;8.388;2022-11-12T01:18:21;13.53;;;8.07;;
6864;SDS011;3471;49.678;8.388;2022-11-12T01:20:47;19.00;;;9.47;;
6864;SDS011;3471;49.678;8.388;2022-11-12T01:23:12;18.55;;;8.70;;
6864;SDS011;3471;49.678;8.388;2022-11-12T01:25:38;15.88;;;9.25;;
6864;SDS011;3471;49.678;8.388;2022-11-12T01:28:03;17.17;;;10.47;;
6864;SDS011;3471;49.678;8.388;2022-11-12T01:30:29;16.98;;;9.63;;
6864;SDS011;3471;49.678;8.388;2022-11-12T01:32:55;17.30;;;8.70;;
6864;SDS011;3471;49.678;8.388;2022-11-12T01:35:21;13.93;;;9.88;;
6864;SDS011;3471;49.678;8.388;2022-11-12T01:37:46;9.13;;;7.37;;
6864;SDS011;3471;49.678;8.388;2022-11-12T01:40:12;12.77;;;9.43;;
6864;SDS011;3471;49.678;8.388;2022-11-12T01:42:39;10.48;;;7.22;;
6864;SDS011;3471;49.678;8.388;2022-11-12T01:45:11;19.05;;;7.82;;
6864;SDS011;3471;49.678;8.388;2022-11-12T01:47:40;11.20;;;7.28;;
6864;SDS011;3471;49.678;8.388;2022-11-12T01:50:24;9.95;;;8.05;;
6864;SDS011;3471;49.678;8.388;2022-11-12T01:53:01;13.13;;;8.70;;
6864;SDS011;3471;49.678;8.388;2022-11-12T01:55:33;8.98;;;7.70;;
6864;SDS011;3471;49.678;8.388;2022-11-12T02:00:34;17.60;;;9.50;;
6864;SDS011;3471;49.678;8.388;2022-11-12T02:03:01;12.32;;;9.25;;
6864;SDS011;3471;49.678;8.388;2022-11-12T02:05:32;14.27;;;10.48;;
6864;SDS011;3471;49.678;8.388;2022-11-12T02:07:59;12.88;;;10.40;;
6864;SDS011;3471;49.678;8.388;2022-11-12T02:10:25;16.15;;;10.45;;
6864;SDS011;3471;49.678;8.388;2022-11-12T02:12:51;12.23;;;6.70;;
6864;SDS011;3471;49.678;8.388;2022-11-12T02:15:37;17.13;;;8.60;;
6864;SDS011;3471;49.678;8.388;2022-11-12T02:18:04;8.07;;;6.32;;
6864;SDS011;3471;49.678;8.388;2022-11-12T02:20:33;10.77;;;7.93;;
6864;SDS011;3471;49.678;8.388;2022-11-12T02:23:00;18.50;;;8.15;;
6864;SDS011;3471;49.678;8.388;2022-11-12T02:25:26;6.82;;;6.22;;
6864;SDS011;3471;49.678;8.388;2022-11-12T02:27:52;11.57;;;7.63;;
6864;SDS011;3471;49.678;8.388;2022-11-12T02:30:29;11.32;;;7.82;;
6864;SDS011;3471;49.678;8.388;2022-11-12T02:33:01;11.57;;;6.68;;
6864;SDS011;3471;49.678;8.388;2022-11-12T02:35:27;9.25;;;6.35;;
6864;SDS011;3471;49.678;8.388;2022-11-12T02:37:54;7.03;;;5.10;;
6864;SDS011;3471;49.678;8.388;2022-11-12T02:40:19;6.63;;;6.03;;
6864;SDS011;3471;49.678;8.388;2022-11-12T02:42:45;13.47;;;7.70;;
6864;SDS011;3471;49.678;8.388;2022-11-12T02:45:11;7.70;;;6.45;;
6864;SDS011;3471;49.678;8.388;2022-11-12T02:47:36;11.95;;;6.28;;
6864;SDS011;3471;49.678;8.388;2022-11-12T02:50:03;9.30;;;6.57;;
6864;SDS011;3471;49.678;8.388;2022-11-12T02:52:29;10.23;;;7.25;;
6864;SDS011;3471;49.678;8.388;2022-11-12T02:54:56;16.38;;;5.82;;
6864;SDS011;3471;49.678;8.388;2022-11-12T02:57:22;6.77;;;6.03;;
6864;SDS011;3471;49.678;8.388;2022-11-12T02:59:48;8.05;;;7.30;;
6864;SDS011;3471;49.678;8.388;2022-11-12T03:02:13;9.48;;;7.55;;
6864;SDS011;3471;49.678;8.388;2022-11-12T03:04:39;7.40;;;5.97;;
6864;SDS011;3471;49.678;8.388;2022-11-12T03:07:04;5.70;;;5.20;;
6864;SDS011;3471;49.678;8.388;2022-11-12T03:09:30;7.70;;;5.13;;
6864;SDS011;3471;49.678;8.388;2022-11-12T03:11:56;12.63;;;6.35;;
6864;SDS011;3471;49.678;8.388;2022-11-12T03:14:21;9.93;;;6.33;;
6864;SDS011;3471;49.678;8.388;2022-11-12T03:16:47;7.90;;;5.22;;
6864;SDS011;3471;49.678;8.388;2022-11-12T03:19:12;6.00;;;4.85;;
6864;SDS011;3471;49.678;8.388;2022-11-12T03:21:38;10.83;;;6.10;;
6864;SDS011;3471;49.678;8.388;2022-11-12T03:24:03;9.80;;;7.07;;
6864;SDS011;3471;49.678;8.388;2022-11-12T03:26:29;6.93;;;6.22;;
6864;SDS011;3471;49.678;8.388;2022-11-12T03:28:55;7.53;;;6.87;;
6864;SDS011;3471;49.678;8.388;2022-11-12T03:31:20;7.85;;;6.13;;
6864;SDS011;3471;49.678;8.388;2022-11-12T03:33:46;8.90;;;6.30;;
6864;SDS011;3471;49.678;8.388;2022-11-12T03:36:12;8.27;;;6.57;;
6864;SDS011;3471;49.678;8.388;2022-11-12T03:38:38;10.63;;;6.43;;
6864;SDS011;3471;49.678;8.388;2022-11-12T03:41:03;6.30;;;5.68;;
6864;SDS011;3471;49.678;8.388;2022-11-12T03:43:29;8.80;;;7.17;;
6864;SDS011;3471;49.678;8.388;2022-11-12T03:45:54;6.30;;;5.70;;
6864;SDS011;3471;49.678;8.388;2022-11-12T03:48:20;7.38;;;4.93;;
6864;SDS011;3471;49.678;8.388;2022-11-12T03:50:46;8.93;;;5.83;;
6864;SDS011;3471;49.678;8.388;2022-11-12T03:53:11;7.33;;;6.63;;
6864;SDS011;3471;49.678;8.388;2022-11-12T03:55:37;7.43;;;5.90;;
6864;SDS011;3471;49.678;8.388;2022-11-12T03:58:03;7.30;;;5.07;;
6864;SDS011;3471;49.678;8.388;2022-11-12T04:00:29;4.55;;;4.10;;
6864;SDS011;3471;49.678;8.388;2022-11-12T04:02:55;6.70;;;5.97;;
6864;SDS011;3471;49.678;8.388;2022-11-12T04:05:22;8.43;;;5.43;;
6864;SDS011;3471;49.678;8.388;2022-11-12T04:08:08;4.97;;;4.35;;
6864;SDS011;3471;49.678;8.388;2022-11-12T04:10:59;5.22;;;4.72;;
6864;SDS011;3471;49.678;8.388;2022-11-12T04:13:26;5.05;;;4.55;;
6864;SDS011;3471;49.678;8.388;2022-11-12T04:16:01;7.30;;;4.50;;
6864;SDS011;3471;49.678;8.388;2022-11-12T04:18:51;7.80;;;5.40;;
6864;SDS011;3471;49.678;8.388;2022-11-12T04:21:39;5.90;;;4.57;;
6864;SDS011;3471;49.678;8.388;2022-11-12T04:24:16;7.07;;;5.43;;
6864;SDS011;3471;49.678;8.388;2022-11-12T04:27:01;4.32;;;3.92;;
6864;SDS011;3471;49.678;8.388;2022-11-12T04:29:27;6.55;;;5.40;;
6864;SDS011;3471;49.678;8.388;2022-11-12T04:32:11;6.50;;;5.50;;
6864;SDS011;3471;49.678;8.388;2022-11-12T04:34:36;7.13;;;4.60;;
6864;SDS011;3471;49.678;8.388;2022-11-12T04:37:02;5.63;;;3.83;;
6864;SDS011;3471;49.678;8.388;2022-11-12T04:39:29;4.50;;;3.88;;
6864;SDS011;3471;49.678;8.388;2022-11-12T04:41:54;6.90;;;5.23;;
6864;SDS011;3471;49.678;8.388;2022-11-12T04:44:39;7.05;;;5.65;;
6864;SDS011;3471;49.678;8.388;2022-11-12T04:47:23;5.28;;;4.60;;
6864;SDS011;3471;49.678;8.388;2022-11-12T04:49:49;4.72;;;4.32;;
6864;SDS011;3471;49.678;8.388;2022-11-12T04:52:14;3.72;;;3.20;;
6864;SDS011;3471;49.678;8.388;2022-11-12T04:54:40;7.43;;;4.18;;
6864;SDS011;3471;49.678;8.388;2022-11-12T04:57:06;5.65;;;4.72;;
6864;SDS011;3471;49.678;8.388;2022-11-12T04:59:31;6.40;;;4.70;;
6864;SDS011;3471;49.678;8.388;2022-11-12T05:01:57;4.80;;;3.97;;
6864;SDS011;3471;49.678;8.388;2022-11-12T05:04:23;4.90;;;4.50;;
6864;SDS011;3471;49.678;8.388;2022-11-12T05:06:51;3.78;;;3.40;;
6864;SDS011;3471;49.678;8.388;2022-11-12T05:09:19;4.73;;;4.33;;
6864;SDS011;3471;49.678;8.388;2022-11-12T05:11:46;4.90;;;4.40;;
6864;SDS011;3471;49.678;8.388;2022-11-12T05:14:12;4.93;;;4.20;;
6864;SDS011;3471;49.678;8.388;2022-11-12T05:16:37;3.77;;;3.07;;
6864;SDS011;3471;49.678;8.388;2022-11-12T05:19:03;7.07;;;4.70;;
6864;SDS011;3471;49.678;8.388;2022-11-12T05:21:29;4.78;;;4.10;;
6864;SDS011;3471;49.678;8.388;2022-11-12T05:24:14;4.60;;;3.80;;
6864;SDS011;3471;49.678;8.388;2022-11-12T05:26:39;16.40;;;4.35;;
6864;SDS011;3471;49.678;8.388;2022-11-12T05:29:05;6.68;;;6.07;;
6864;SDS011;3471;49.678;8.388;2022-11-12T05:31:31;4.70;;;3.57;;
6864;SDS011;3471;49.678;8.388;2022-11-12T05:33:56;5.90;;;4.95;;
6864;SDS011;3471;49.678;8.388;2022-11-12T05:36:22;6.07;;;4.35;;
6864;SDS011;3471;49.678;8.388;2022-11-12T05:38:48;4.93;;;4.35;;
6864;SDS011;3471;49.678;8.388;2022-11-12T05:41:13;4.10;;;3.60;;
6864;SDS011;3471;49.678;8.388;2022-11-12T05:43:39;5.70;;;3.35;;
6864;SDS011;3471;49.678;8.388;2022-11-12T05:46:04;3.90;;;3.60;;
6864;SDS011;3471;49.678;8.388;2022-11-12T05:48:30;9.13;;;4.00;;
6864;SDS011;3471;49.678;8.388;2022-11-12T05:50:56;5.28;;;4.35;;
6864;SDS011;3471;49.678;8.388;2022-11-12T05:53:21;4.90;;;3.90;;
6864;SDS011;3471;49.678;8.388;2022-11-12T05:55:47;4.43;;;3.50;;
6864;SDS011;3471;49.678;8.388;2022-11-12T05:58:12;3.92;;;2.83;;
6864;SDS011;3471;49.678;8.388;2022-11-12T06:00:38;5.43;;;4.20;;
6864;SDS011;3471;49.678;8.388;2022-11-12T06:03:04;5.55;;;4.95;;
6864;SDS011;3471;49.678;8.388;2022-11-12T06:05:33;5.10;;;4.18;;
6864;SDS011;3471;49.678;8.388;2022-11-12T06:07:59;12.00;;;6.22;;
6864;SDS011;3471;49.678;8.388;2022-11-12T06:10:25;4.82;;;4.25;;
6864;SDS011;3471;49.678;8.388;2022-11-12T06:12:51;6.68;;;4.22;;
6864;SDS011;3471;49.678;8.388;2022-11-12T06:15:17;3.33;;;3.03;;
6864;SDS011;3471;49.678;8.388;2022-11-12T06:17:43;4.00;;;3.70;;
6864;SDS011;3471;49.678;8.388;2022-11-12T06:20:09;3.80;;;3.40;;
6864;SDS011;3471;49.678;8.388;2022-11-12T06:22:35;4.53;;;3.30;;
6864;SDS011;3471;49.678;8.388;2022-11-12T06:25:01;3.20;;;2.77;;
6864;SDS011;3471;49.678;8.388;2022-11-12T06:27:28;11.82;;;7.20;;
6864;SDS011;3471;49.678;8.388;2022-11-12T06:29:53;5.50;;;5.00;;
6864;SDS011;3471;49.678;8.388;2022-11-12T06:32:19;3.47;;;3.15;;
6864;SDS011;3471;49.678;8.388;2022-11-12T06:34:45;4.13;;;3.50;;
6864;SDS011;3471;49.678;8.388;2022-11-12T06:37:10;4.37;;;3.97;;
6864;SDS011;3471;49.678;8.388;2022-11-12T06:39:36;3.80;;;2.97;;
6864;SDS011;3471;49.678;8.388;2022-11-12T06:42:01;6.60;;;3.70;;
6864;SDS011;3471;49.678;8.388;2022-11-12T06:44:27;3.60;;;3.30;;
6864;SDS011;3471;49.678;8.388;2022-11-12T06:46:52;10.48;;;5.50;;
6864;SDS011;3471;49.678;8.388;2022-11-12T06:49:18;19.30;;;10.43;;
6864;SDS011;3471;49.678;8.388;2022-11-12T06:51:44;6.43;;;4.15;;
6864;SDS011;3471;49.678;8.388;2022-11-12T06:54:09;3.75;;;2.95;;
6864;SDS011;3471;49.678;8.388;2022-11-12T06:56:35;3.43;;;3.13;;
6864;SDS011;3471;49.678;8.388;2022-11-12T06:59:00;4.63;;;3.72;;
6864;SDS011;3471;49.678;8.388;2022-11-12T07:01:26;4.43;;;4.03;;
6864;SDS011;3471;49.678;8.388;2022-11-12T07:03:52;5.23;;;3.77;;
6864;SDS011;3471;49.678;8.388;2022-11-12T07:06:18;5.00;;;4.50;;
6864;SDS011;3471;49.678;8.388;2022-11-12T07:08:44;6.03;;;5.40;;
6864;SDS011;3471;49.678;8.388;2022-11-12T07:11:10;5.22;;;4.72;;
6864;SDS011;3471;49.678;8.388;2022-11-12T07:13:36;3.67;;;3.38;;
6864;SDS011;3471;49.678;8.388;2022-11-12T07:16:02;6.57;;;5.97;;
6864;SDS011;3471;49.678;8.388;2022-11-12T07:18:30;3.50;;;3.20;;
6864;SDS011;3471;49.678;8.388;2022-11-12T07:20:59;7.25;;;6.53;;
6864;SDS011;3471;49.678;8.388;2022-11-12T07:23:26;4.68;;;4.10;;
6864;SDS011;3471;49.678;8.388;2022-11-12T07:25:54;5.10;;;4.30;;
6864;SDS011;3471;49.678;8.388;2022-11-12T07:28:24;3.95;;;3.45;;
6864;SDS011;3471;49.678;8.388;2022-11-12T07:30:53;2.95;;;2.75;;
6864;SDS011;3471;49.678;8.388;2022-11-12T07:33:20;4.20;;;3.17;;
6864;SDS011;3471;49.678;8.388;2022-11-12T07:35:46;4.83;;;3.70;;
6864;SDS011;3471;49.678;8.388;2022-11-12T07:38:11;8.53;;;4.07;;
6864;SDS011;3471;49.678;8.388;2022-11-12T07:40:37;4.40;;;3.10;;
6864;SDS011;3471;49.678;8.388;2022-11-12T07:43:02;5.60;;;4.07;;
6864;SDS011;3471;49.678;8.388;2022-11-12T07:45:28;5.10;;;4.60;;
6864;SDS011;3471;49.678;8.388;2022-11-12T07:47:53;12.52;;;5.75;;
6864;SDS011;3471;49.678;8.388;2022-11-12T07:50:23;2.55;;;2.13;;
6864;SDS011;3471;49.678;8.388;2022-11-12T07:52:48;5.47;;;4.43;;
6864;SDS011;3471;49.678;8.388;2022-11-12T07:55:14;7.77;;;4.70;;
6864;SDS011;3471;49.678;8.388;2022-11-12T07:57:39;6.57;;;5.78;;
6864;SDS011;3471;49.678;8.388;2022-11-12T08:00:05;5.43;;;5.00;;
6864;SDS011;3471;49.678;8.388;2022-11-12T08:02:32;6.27;;;5.67;;
6864;SDS011;3471;49.678;8.388;2022-11-12T08:04:57;4.68;;;4.28;;
6864;SDS011;3471;49.678;8.388;2022-11-12T08:07:23;4.33;;;3.93;;
6864;SDS011;3471;49.678;8.388;2022-11-12T08:09:48;3.55;;;3.15;;
6864;SDS011;3471;49.678;8.388;2022-11-12T08:12:14;5.55;;;5.05;;
6864;SDS011;3471;49.678;8.388;2022-11-12T08:14:39;4.43;;;3.77;;
6864;SDS011;3471;49.678;8.388;2022-11-12T08:17:05;5.55;;;4.97;;
6864;SDS011;3471;49.678;8.388;2022-11-12T08:19:30;4.38;;;3.20;;
6864;SDS011;3471;49.678;8.388;2022-11-12T08:21:56;5.97;;;4.83;;
6864;SDS011;3471;49.678;8.388;2022-11-12T08:24:22;6.40;;;5.68;;
6864;SDS011;3471;49.678;8.388;2022-11-12T08:26:47;8.57;;;6.25;;
6864;SDS011;3471;49.678;8.388;2022-11-12T08:29:13;5.20;;;4.47;;
6864;SDS011;3471;49.678;8.388;2022-11-12T08:31:39;6.20;;;4.57;;
6864;SDS011;3471;49.678;8.388;2022-11-12T08:34:04;4.87;;;4.47;;
6864;SDS011;3471;49.678;8.388;2022-11-12T08:36:36;4.10;;;3.60;;
6864;SDS011;3471;49.678;8.388;2022-11-12T08:39:02;5.25;;;4.45;;
6864;SDS011;3471;49.678;8.388;2022-11-12T08:41:28;4.53;;;4.13;;
6864;SDS011;3471;49.678;8.388;2022-11-12T08:43:53;4.70;;;4.00;;
6864;SDS011;3471;49.678;8.388;2022-11-12T08:46:19;8.05;;;7.13;;
6864;SDS011;3471;49.678;8.388;2022-11-12T08:48:44;9.40;;;7.30;;
6864;SDS011;3471;49.678;8.388;2022-11-12T08:51:10;8.27;;;7.03;;
6864;SDS011;3471;49.678;8.388;2022-11-12T08:53:35;6.53;;;6.03;;
6864;SDS011;3471;49.678;8.388;2022-11-12T08:56:01;11.07;;;4.97;;
6864;SDS011;3471;49.678;8.388;2022-11-12T08:58:27;10.65;;;5.88;;
6864;SDS011;3471;49.678;8.388;2022-11-12T09:00:52;6.57;;;5.20;;
6864;SDS011;3471;49.678;8.388;2022-11-12T09:03:20;8.27;;;5.45;;
6864;SDS011;3471;49.678;8.388;2022-11-12T09:05:47;3.53;;;3.22;;
6864;SDS011;3471;49.678;8.388;2022-11-12T09:08:17;5.38;;;3.75;;
6864;SDS011;3471;49.678;8.388;2022-11-12T09:10:46;6.00;;;4.63;;
6864;SDS011;3471;49.678;8.388;2022-11-12T09:13:12;4.35;;;3.92;;
6864;SDS011;3471;49.678;8.388;2022-11-12T09:15:38;5.22;;;4.82;;
6864;SDS011;3471;49.678;8.388;2022-11-12T09:18:05;5.28;;;4.68;;
6864;SDS011;3471;49.678;8.388;2022-11-12T09:20:34;7.55;;;6.13;;
6864;SDS011;3471;49.678;8.388;2022-11-12T09:23:07;6.20;;;4.97;;
6864;SDS011;3471;49.678;8.388;2022-11-12T09:25:34;7.13;;;6.43;;
6864;SDS011;3471;49.678;8.388;2022-11-12T09:30:34;4.97;;;4.50;;
6864;SDS011;3471;49.678;8.388;2022-11-12T09:33:00;6.00;;;5.50;;
6864;SDS011;3471;49.678;8.388;2022-11-12T09:35:25;10.70;;;6.30;;
6864;SDS011;3471;49.678;8.388;2022-11-12T09:37:51;5.10;;;4.70;;
6864;SDS011;3471;49.678;8.388;2022-11-12T09:40:17;5.38;;;4.82;;
6864;SDS011;3471;49.678;8.388;2022-11-12T09:42:45;6.43;;;5.50;;
6864;SDS011;3471;49.678;8.388;2022-11-12T09:45:26;7.15;;;3.97;;
6864;SDS011;3471;49.678;8.388;2022-11-12T09:47:56;5.82;;;4.40;;
6864;SDS011;3471;49.678;8.388;2022-11-12T09:52:59;6.30;;;4.83;;
6864;SDS011;3471;49.678;8.388;2022-11-12T09:55:39;4.32;;;4.03;;
6864;SDS011;3471;49.678;8.388;2022-11-12T09:58:11;6.20;;;5.32;;
6864;SDS011;3471;49.678;8.388;2022-11-12T10:00:39;9.10;;;6.55;;
6864;SDS011;3471;49.678;8.388;2022-11-12T10:03:16;3.50;;;2.90;;
6864;SDS011;3471;49.678;8.388;2022-11-12T10:06:00;5.40;;;4.90;;
6864;SDS011;3471;49.678;8.388;2022-11-12T10:08:56;5.22;;;4.22;;
6864;SDS011;3471;49.678;8.388;2022-11-12T10:17:49;7.05;;;5.50;;
6864;SDS011;3471;49.678;8.388;2022-11-12T10:20:25;5.63;;;5.13;;
6864;SDS011;3471;49.678;8.388;2022-11-12T10:23:13;8.65;;;5.32;;
6864;SDS011;3471;49.678;8.388;2022-11-12T10:25:40;24.25;;;17.60;;
6864;SDS011;3471;49.678;8.388;2022-11-12T10:28:28;11.95;;;10.30;;
6864;SDS011;3471;49.678;8.388;2022-11-12T10:30:59;10.48;;;9.38;;
6864;SDS011;3471;49.678;8.388;2022-11-12T10:33:31;15.55;;;10.80;;
6864;SDS011;3471;49.678;8.388;2022-11-12T10:36:16;14.05;;;11.18;;
6864;SDS011;3471;49.678;8.388;2022-11-12T10:38:44;14.75;;;9.65;;
6864;SDS011;3471;49.678;8.388;2022-11-12T10:41:21;12.00;;;7.75;;
6864;SDS011;3471;49.678;8.388;2022-11-12T10:43:56;90.22;;;67.95;;
6864;SDS011;3471;49.678;8.388;2022-11-12T10:49:00;20.45;;;15.18;;
6864;SDS011;3471;49.678;8.388;2022-11-12T10:53:58;12.77;;;9.50;;
6864;SDS011;3471;49.678;8.388;2022-11-12T10:56:28;21.50;;;15.85;;
6864;SDS011;3471;49.678;8.388;2022-11-12T10:59:15;11.40;;;9.65;;
6864;SDS011;3471;49.678;8.388;2022-11-12T11:01:42;19.45;;;15.73;;
6864;SDS011;3471;49.678;8.388;2022-11-12T11:04:42;11.05;;;8.88;;
6864;SDS011;3471;49.678;8.388;2022-11-12T11:07:21;10.93;;;8.20;;
6864;SDS011;3471;49.678;8.388;2022-11-12T11:09:52;9.77;;;8.88;;
6864;SDS011;3471;49.678;8.388;2022-11-12T11:12:24;24.50;;;19.02;;
6864;SDS011;3471;49.678;8.388;2022-11-12T11:17:31;18.67;;;11.07;;
6864;SDS011;3471;49.678;8.388;2022-11-12T11:19:57;9.85;;;8.60;;
6864;SDS011;3471;49.678;8.388;2022-11-12T11:22:27;10.70;;;9.43;;
6864;SDS011;3471;49.678;8.388;2022-11-12T11:25:07;35.78;;;26.70;;
6864;SDS011;3471;49.678;8.388;2022-11-12T11:27:44;10.60;;;8.00;;
6864;SDS011;3471;49.678;8.388;2022-11-12T11:30:19;12.85;;;10.00;;
6864;SDS011;3471;49.678;8.388;2022-11-12T11:33:08;10.43;;;8.25;;
6864;SDS011;3471;49.678;8.388;2022-11-12T11:35:56;29.95;;;18.58;;
6864;SDS011;3471;49.678;8.388;2022-11-12T12:00:29;17.38;;;14.38;;
6864;SDS011;3471;49.678;8.388;2022-11-12T12:03:19;10.25;;;8.63;;
6864;SDS011;3471;49.678;8.388;2022-11-12T12:08:50;14.93;;;12.13;;
6864;SDS011;3471;49.678;8.388;2022-11-12T12:22:45;11.05;;;8.90;;
6864;SDS011;3471;49.678;8.388;2022-11-12T12:25:31;10.77;;;8.10;;
6864;SDS011;3471;49.678;8.388;2022-11-12T12:28:15;11.60;;;7.90;;
6864;SDS011;3471;49.678;8.388;2022-11-12T12:31:01;16.17;;;12.85;;
6864;SDS011;3471;49.678;8.388;2022-11-12T12:36:16;16.00;;;11.40;;
6864;SDS011;3471;49.678;8.388;2022-11-12T12:38:53;12.63;;;11.32;;
6864;SDS011;3471;49.678;8.388;2022-11-12T12:41:29;15.13;;;12.48;;
6864;SDS011;3471;49.678;8.388;2022-11-12T12:44:09;14.30;;;11.63;;
6864;SDS011;3471;49.678;8.388;2022-11-12T12:46:39;13.40;;;10.85;;
6864;SDS011;3471;49.678;8.388;2022-11-12T12:49:18;13.20;;;10.70;;
6864;SDS011;3471;49.678;8.388;2022-11-12T12:51:53;12.82;;;10.05;;
6864;SDS011;3471;49.678;8.388;2022-11-12T13:00:26;16.13;;;11.60;;
6864;SDS011;3471;49.678;8.388;2022-11-12T13:02:54;15.38;;;12.82;;
6864;SDS011;3471;49.678;8.388;2022-11-12T13:05:29;13.57;;;11.88;;
6864;SDS011;3471;49.678;8.388;2022-11-12T13:08:08;13.02;;;11.73;;
6864;SDS011;3471;49.678;8.388;2022-11-12T13:15:49;13.55;;;10.65;;
6864;SDS011;3471;49.678;8.388;2022-11-12T13:21:16;15.97;;;11.87;;
6864;SDS011;3471;49.678;8.388;2022-11-12T13:23:46;18.65;;;11.85;;
6864;SDS011;3471;49.678;8.388;2022-11-12T13:26:47;77.80;;;45.88;;
6864;SDS011;3471;49.678;8.388;2022-11-12T13:29:21;43.40;;;24.97;;
6864;SDS011;3471;49.678;8.388;2022-11-12T13:35:11;17.40;;;12.20;;
6864;SDS011;3471;49.678;8.388;2022-11-12T13:40:13;20.88;;;13.90;;
6864;SDS011;3471;49.678;8.388;2022-11-12T13:42:48;49.00;;;31.80;;
6864;SDS011;3471;49.678;8.388;2022-11-12T13:45:19;22.90;;;17.10;;
6864;SDS011;3471;49.678;8.388;2022-11-12T13:47:48;43.28;;;25.02;;
6864;SDS011;3471;49.678;8.388;2022-11-12T13:50:15;15.82;;;11.15;;
6864;SDS011;3471;49.678;8.388;2022-11-12T13:52:44;20.48;;;15.93;;
6864;SDS011;3471;49.678;8.388;2022-11-12T13:55:18;38.75;;;25.80;;
6864;SDS011;3471;49.678;8.388;2022-11-12T13:57:49;34.10;;;23.60;;
6864;SDS011;3471;49.678;8.388;2022-11-12T14:02:42;21.60;;;14.00;;
6864;SDS011;3471;49.678;8.388;2022-11-12T14:05:17;38.08;;;22.25;;
6864;SDS011;3471;49.678;8.388;2022-11-12T14:10:34;20.83;;;15.07;;
6864;SDS011;3471;49.678;8.388;2022-11-12T14:18:54;29.45;;;20.35;;
6864;SDS011;3471;49.678;8.388;2022-11-12T14:21:41;27.83;;;22.35;;
6864;SDS011;3471;49.678;8.388;2022-11-12T14:24:08;15.07;;;13.57;;
6864;SDS011;3471;49.678;8.388;2022-11-12T14:29:03;25.55;;;14.00;;
6864;SDS011;3471;49.678;8.388;2022-11-12T14:31:29;28.52;;;21.10;;
6864;SDS011;3471;49.678;8.388;2022-11-12T14:33:55;19.30;;;13.13;;
6864;SDS011;3471;49.678;8.388;2022-11-12T14:36:20;14.82;;;11.20;;
6864;SDS011;3471;49.678;8.388;2022-11-12T14:38:48;18.05;;;12.93;;
6864;SDS011;3471;49.678;8.388;2022-11-12T14:43:49;15.15;;;13.15;;
6864;SDS011;3471;49.678;8.388;2022-11-12T14:46:28;34.13;;;25.67;;
6864;SDS011;3471;49.678;8.388;2022-11-12T14:51:26;32.70;;;24.33;;
6864;SDS011;3471;49.678;8.388;2022-11-12T14:54:01;25.83;;;17.63;;
6864;SDS011;3471;49.678;8.388;2022-11-12T14:59:09;43.07;;;26.00;;
6864;SDS011;3471;49.678;8.388;2022-11-12T15:01:37;17.75;;;14.23;;
6864;SDS011;3471;49.678;8.388;2022-11-12T15:06:35;42.45;;;26.25;;
6864;SDS011;3471;49.678;8.388;2022-11-12T15:09:02;26.17;;;19.73;;
6864;SDS011;3471;49.678;8.388;2022-11-12T15:11:44;66.00;;;38.08;;
6864;SDS011;3471;49.678;8.388;2022-11-12T15:14:18;33.70;;;19.75;;
6864;SDS011;3471;49.678;8.388;2022-11-12T15:16:45;24.25;;;19.33;;
6864;SDS011;3471;49.678;8.388;2022-11-12T15:19:22;23.43;;;20.20;;
6864;SDS011;3471;49.678;8.388;2022-11-12T15:21:50;31.15;;;19.83;;
6864;SDS011;3471;49.678;8.388;2022-11-12T15:26:50;61.58;;;37.22;;
6864;SDS011;3471;49.678;8.388;2022-11-12T15:29:24;25.17;;;16.17;;
6864;SDS011;3471;49.678;8.388;2022-11-12T15:32:00;18.95;;;15.20;;
6864;SDS011;3471;49.678;8.388;2022-11-12T15:34:48;18.00;;;13.52;;
6864;SDS011;3471;49.678;8.388;2022-11-12T15:39:43;20.70;;;12.95;;
6864;SDS011;3471;49.678;8.388;2022-11-12T15:42:24;18.55;;;12.52;;
6864;SDS011;3471;49.678;8.388;2022-11-12T15:45:07;22.42;;;16.50;;
6864;SDS011;3471;49.678;8.388;2022-11-12T15:47:45;16.90;;;14.82;;
6864;SDS011;3471;49.678;8.388;2022-11-12T15:50:21;20.80;;;15.93;;
6864;SDS011;3471;49.678;8.388;2022-11-12T15:52:48;30.52;;;18.98;;
6864;SDS011;3471;49.678;8.388;2022-11-12T15:55:14;29.70;;;19.83;;
6864;SDS011;3471;49.678;8.388;2022-11-12T15:57:41;47.70;;;34.13;;
6864;SDS011;3471;49.678;8.388;2022-11-12T16:00:17;36.53;;;26.98;;
6864;SDS011;3471;49.678;8.388;2022-11-12T16:02:45;25.63;;;20.17;;
6864;SDS011;3471;49.678;8.388;2022-11-12T16:05:14;31.23;;;17.50;;
6864;SDS011;3471;49.678;8.388;2022-11-12T16:07:41;22.30;;;16.10;;
6864;SDS011;3471;49.678;8.388;2022-11-12T16:10:06;19.87;;;14.07;;
6864;SDS011;3471;49.678;8.388;2022-11-12T16:12:37;21.85;;;14.75;;
6864;SDS011;3471;49.678;8.388;2022-11-12T16:15:04;24.10;;;18.53;;
6864;SDS011;3471;49.678;8.388;2022-11-12T16:17:37;17.73;;;14.15;;
6864;SDS011;3471;49.678;8.388;2022-11-12T16:20:10;19.20;;;13.37;;
6864;SDS011;3471;49.678;8.388;2022-11-12T16:22:40;18.10;;;15.20;;
6864;SDS011;3471;49.678;8.388;2022-11-12T16:25:06;18.33;;;14.60;;
6864;SDS011;3471;49.678;8.388;2022-11-12T16:27:32;13.45;;;11.27;;
6864;SDS011;3471;49.678;8.388;2022-11-12T16:29:57;14.05;;;10.27;;
6864;SDS011;3471;49.678;8.388;2022-11-12T16:32:23;14.50;;;11.13;;
6864;SDS011;3471;49.678;8.388;2022-11-12T16:34:48;11.67;;;10.57;;
6864;SDS011;3471;49.678;8.388;2022-11-12T16:37:14;13.85;;;11.25;;
6864;SDS011;3471;49.678;8.388;2022-11-12T16:39:40;14.73;;;13.25;;
6864;SDS011;3471;49.678;8.388;2022-11-12T16:42:08;14.48;;;12.25;;
6864;SDS011;3471;49.678;8.388;2022-11-12T16:44:34;15.35;;;12.80;;
6864;SDS011;3471;49.678;8.388;2022-11-12T16:47:00;17.77;;;14.27;;
6864;SDS011;3471;49.678;8.388;2022-11-12T16:49:27;16.25;;;12.38;;
6864;SDS011;3471;49.678;8.388;2022-11-12T16:51:53;16.10;;;11.53;;
6864;SDS011;3471;49.678;8.388;2022-11-12T16:54:18;21.40;;;13.13;;
6864;SDS011;3471;49.678;8.388;2022-11-12T16:56:44;22.50;;;15.20;;
6864;SDS011;3471;49.678;8.388;2022-11-12T16:59:10;29.15;;;14.30;;
6864;SDS011;3471;49.678;8.388;2022-11-12T17:01:38;16.55;;;13.88;;
6864;SDS011;3471;49.678;8.388;2022-11-12T17:04:04;17.60;;;15.23;;